M/V Nazim Bey — TCSW3 — position and weather

sailwx.info

Track history (hours):
 
Tides and Currents Weather Stations Pressure Air Temp Water Temp Dewpoint Dewpoint Depression Visibility Wind Speed Wind Dir Waves Ship Positions

M/V Nazim Bey

Last reported at 2017-Dec-03 06:42 UTC. Time now 2017-Dec-14 08:16 UTC.
Position N 43°26' E 028°52'.
Warning: this ship's position is 11 days out of date.

Length 81 m; draft 4.9 m.

Type: Cargo ship. MMSI: 271000999.

Date/timePositionNaut miles runAvg speedWind from/ knotsBaromVisibWave heightAir tempDewpointWater temp
2017-Dec-03 06:42N 43°26' E 028°52'2 8.8
2017-Dec-03 06:25N 43°29' E 028°51'4 8.6
2017-Dec-03 05:59N 43°32' E 028°51'4 8.8
2017-Dec-03 05:30N 43°37' E 028°50'4 8.6
2017-Dec-03 05:00N 43°41' E 028°50'4 8.2
2017-Dec-03 04:31N 43°45' E 028°49'4 8.1
2017-Dec-03 04:00N 43°49' E 028°49'4 8.2
2017-Dec-03 03:30N 43°53' E 028°49'4 8.0
2017-Dec-03 03:00N 43°57' E 028°48'4 7.7
2017-Dec-03 02:30N 44°01' E 028°46'4 7.8
2017-Dec-03 02:00N 44°04' E 028°43'4 7.8
2017-Dec-03 01:30N 44°07' E 028°41'3 4.8
2017-Dec-03 00:58N 44°09' E 028°39'0 0.0
2017-Dec-03 00:28N 44°09' E 028°39'0 0.0
2017-Dec-02 23:55N 44°09' E 028°39'0 0.0
2017-Dec-02 23:28N 44°09' E 028°39'0 0.0
2017-Dec-02 22:58N 44°09' E 028°39'0 0.0
2017-Dec-02 22:31N 44°09' E 028°39'0 0.0
2017-Dec-02 21:58N 44°09' E 028°39'0 0.0
2017-Dec-02 21:28N 44°09' E 028°39'0 0.0
2017-Dec-02 20:58N 44°09' E 028°39'0 0.0
2017-Dec-02 20:28N 44°09' E 028°39'0 0.0
2017-Dec-02 19:58N 44°09' E 028°39'0 0.0
2017-Dec-02 19:28N 44°09' E 028°39'0 0.0
2017-Dec-02 18:58N 44°09' E 028°39'0 0.0
2017-Dec-02 18:28N 44°09' E 028°39'0 0.0
2017-Dec-02 18:01N 44°09' E 028°39'0 0.0
2017-Dec-02 17:28N 44°09' E 028°39'0 0.0
2017-Dec-02 16:58N 44°09' E 028°39'0 0.0
2017-Dec-02 16:28N 44°09' E 028°39'0 0.0
2017-Dec-02 15:58N 44°09' E 028°39'0 0.0
2017-Dec-02 15:28N 44°09' E 028°39'0 0.0
2017-Dec-02 14:58N 44°09' E 028°39'0 0.0
2017-Dec-02 14:28N 44°09' E 028°39'0 0.0
2017-Dec-02 13:58N 44°09' E 028°39'0 0.0
2017-Dec-02 13:28N 44°09' E 028°39'0 0.0
2017-Dec-02 12:58N 44°09' E 028°39'0 0.0
2017-Dec-02 12:28N 44°09' E 028°39'0 0.0
2017-Dec-02 11:52N 44°09' E 028°39'0 0.0
2017-Dec-02 11:25N 44°09' E 028°39'0 0.0
2017-Dec-02 10:58N 44°09' E 028°39'0 0.0
2017-Dec-02 10:28N 44°09' E 028°39'0 0.0
2017-Dec-02 09:58N 44°09' E 028°39'0 0.0
2017-Dec-02 09:28N 44°09' E 028°39'0 0.0
2017-Dec-02 08:58N 44°09' E 028°39'0 0.0
2017-Dec-02 08:28N 44°09' E 028°39'0 0.0
2017-Dec-02 07:58N 44°09' E 028°39'0 0.0
2017-Dec-02 07:25N 44°09' E 028°39'0 0.0
2017-Dec-02 06:58N 44°09' E 028°39'0 0.0
2017-Dec-02 06:25N 44°09' E 028°39'0 0.0
2017-Dec-02 06:01N 44°09' E 028°39'0 0.0
2017-Dec-02 05:28N 44°09' E 028°39'0 0.0
2017-Dec-02 05:01N 44°09' E 028°39'0 0.0
2017-Dec-02 04:28N 44°09' E 028°39'0 0.0
2017-Dec-02 04:01N 44°09' E 028°39'0 0.0
2017-Dec-02 03:31N 44°09' E 028°39'0 0.0
2017-Dec-02 02:58N 44°09' E 028°39'0 0.0
2017-Dec-02 02:31N 44°09' E 028°39'0 0.0
2017-Dec-02 01:58N 44°09' E 028°39'0 0.0
2017-Dec-02 01:31N 44°09' E 028°39'0 0.0
2017-Dec-02 01:01N 44°09' E 028°39'0 0.0
2017-Dec-02 00:31N 44°09' E 028°39'0 0.0
2017-Dec-01 23:55N 44°09' E 028°39'0 0.0
2017-Dec-01 23:31N 44°09' E 028°39'0 0.0
2017-Dec-01 22:55N 44°09' E 028°39'0 0.0
2017-Dec-01 22:31N 44°09' E 028°39'0 0.0
2017-Dec-01 22:01N 44°09' E 028°39'0 0.0
2017-Dec-01 21:28N 44°09' E 028°39'0 0.0
2017-Dec-01 21:01N 44°09' E 028°39'0 0.0
2017-Dec-01 20:31N 44°09' E 028°39'0 0.0
2017-Dec-01 20:01N 44°09' E 028°39'0 0.0
2017-Dec-01 19:31N 44°09' E 028°39'0 0.0
2017-Dec-01 19:01N 44°09' E 028°39'0 0.0
2017-Dec-01 18:31N 44°09' E 028°39'0 0.0
2017-Dec-01 18:01N 44°09' E 028°39'0 0.0
2017-Dec-01 17:31N 44°09' E 028°39'0 0.0
2017-Dec-01 16:55N 44°09' E 028°39'0 0.0
2017-Dec-01 16:31N 44°09' E 028°39'0 0.0
2017-Dec-01 16:01N 44°09' E 028°39'0 0.0
2017-Dec-01 15:31N 44°09' E 028°39'0 0.0
2017-Dec-01 15:01N 44°09' E 028°39'0 0.0
2017-Dec-01 14:28N 44°09' E 028°39'0 0.0
2017-Dec-01 14:01N 44°09' E 028°39'0 0.0
2017-Dec-01 13:31N 44°09' E 028°39'0 0.0
2017-Dec-01 12:58N 44°09' E 028°39'0 0.0
2017-Dec-01 12:31N 44°09' E 028°39'0 0.0
2017-Dec-01 12:01N 44°09' E 028°39'0 0.1
2017-Dec-01 11:30N 44°09' E 028°39'2 3.5
2017-Dec-01 11:00N 44°08' E 028°41'3 6.9
2017-Dec-01 10:30N 44°05' E 028°43'3 5.8
2017-Dec-01 10:00N 44°08' E 028°46'1 1.6
2017-Dec-01 09:26N 44°09' E 028°46'0 0.0
2017-Dec-01 08:59N 44°09' E 028°46'0 0.0
2017-Dec-01 08:29N 44°09' E 028°46'0 0.0
2017-Dec-01 07:59N 44°09' E 028°46'0 0.0
2017-Dec-01 07:29N 44°09' E 028°46'0 0.0
2017-Dec-01 06:59N 44°09' E 028°46'0 0.0
2017-Dec-01 06:29N 44°09' E 028°46'0 0.0
2017-Dec-01 05:59N 44°09' E 028°46'0 0.0
2017-Dec-01 05:29N 44°09' E 028°46'0 0.0
2017-Dec-01 04:59N 44°09' E 028°46'0 0.0
2017-Dec-01 04:29N 44°09' E 028°46'0 0.0
2017-Dec-01 03:59N 44°09' E 028°46'0 0.0
2017-Dec-01 03:29N 44°09' E 028°46'0 0.0
2017-Dec-01 02:59N 44°09' E 028°46'0 0.0
2017-Dec-01 02:29N 44°09' E 028°46'0 0.0
2017-Dec-01 01:53N 44°09' E 028°46'0 0.0
2017-Dec-01 01:29N 44°09' E 028°46'0 0.0
2017-Dec-01 00:56N 44°09' E 028°46'0 0.0
2017-Dec-01 00:26N 44°09' E 028°46'0 0.0
2017-Nov-30 23:59N 44°09' E 028°46'0 0.0
2017-Nov-30 23:29N 44°09' E 028°46'0 0.0
2017-Nov-30 22:59N 44°09' E 028°46'0 0.0
2017-Nov-30 22:29N 44°09' E 028°46'0 0.0
2017-Nov-30 21:59N 44°09' E 028°46'0 0.0
2017-Nov-30 21:29N 44°09' E 028°46'0 0.0
2017-Nov-30 20:59N 44°09' E 028°46'0 0.0
2017-Nov-30 20:29N 44°09' E 028°46'0 0.0
2017-Nov-30 19:59N 44°09' E 028°46'0 0.1
2017-Nov-30 19:29N 44°09' E 028°46'0 0.2
2017-Nov-30 18:59N 44°09' E 028°46'0 0.1
2017-Nov-30 18:29N 44°08' E 028°46'0 0.0
2017-Nov-30 17:59N 44°08' E 028°46'0 0.1
2017-Nov-30 17:26N 44°08' E 028°46'0 0.1
2017-Nov-30 16:59N 44°08' E 028°46'0 0.3
2017-Nov-30 16:30N 44°08' E 028°46'1 1.9
2017-Nov-30 15:58N 44°09' E 028°46'0 0.2
2017-Nov-30 15:28N 44°09' E 028°46'0 0.0
2017-Nov-30 14:58N 44°09' E 028°46'0 0.0
2017-Nov-30 14:28N 44°09' E 028°46'0 0.0
2017-Nov-30 13:58N 44°09' E 028°46'0 0.0
2017-Nov-30 13:28N 44°09' E 028°46'0 0.0
2017-Nov-30 12:58N 44°09' E 028°46'0 0.0
2017-Nov-30 12:28N 44°09' E 028°46'0 0.0
2017-Nov-30 11:58N 44°09' E 028°46'0 0.0
2017-Nov-30 11:28N 44°09' E 028°46'0 0.0
2017-Nov-30 10:58N 44°09' E 028°46'0 0.0
2017-Nov-30 10:28N 44°09' E 028°46'0 0.0
2017-Nov-30 09:58N 44°09' E 028°46'0 0.0
2017-Nov-30 09:28N 44°09' E 028°46'0 0.0
2017-Nov-30 08:58N 44°09' E 028°46'0 0.0
2017-Nov-30 08:28N 44°09' E 028°46'0 0.0
2017-Nov-30 07:58N 44°09' E 028°46'0 0.0
2017-Nov-30 07:28N 44°09' E 028°46'0 0.0
2017-Nov-30 06:55N 44°09' E 028°46'0 0.0
2017-Nov-30 06:28N 44°09' E 028°46'0 0.0
2017-Nov-30 05:58N 44°09' E 028°46'0 0.0
2017-Nov-30 05:28N 44°09' E 028°46'0 0.0
2017-Nov-30 04:58N 44°09' E 028°46'0 0.0
2017-Nov-30 04:28N 44°09' E 028°46'0 0.0
2017-Nov-30 03:58N 44°09' E 028°46'0 0.0
2017-Nov-30 03:28N 44°09' E 028°46'0 0.0
2017-Nov-30 02:58N 44°09' E 028°46'0 0.0
2017-Nov-30 02:28N 44°09' E 028°46'0 0.0
2017-Nov-30 01:58N 44°09' E 028°46'0 0.0
2017-Nov-30 01:28N 44°09' E 028°46'0 0.0
2017-Nov-30 00:58N 44°09' E 028°46'0 0.0
2017-Nov-30 00:22N 44°09' E 028°46'0 0.0
2017-Nov-29 23:58N 44°09' E 028°46'0 0.0
2017-Nov-29 23:28N 44°09' E 028°46'0 0.0
2017-Nov-29 22:58N 44°09' E 028°46'0 0.0
2017-Nov-29 22:28N 44°09' E 028°46'0 0.0
2017-Nov-29 21:58N 44°09' E 028°46'0 0.0
2017-Nov-29 21:28N 44°09' E 028°46'0 0.0
2017-Nov-29 20:58N 44°09' E 028°46'0 0.0
2017-Nov-29 20:28N 44°09' E 028°46'0 0.0
2017-Nov-29 19:52N 44°09' E 028°46'0 0.0
2017-Nov-29 19:28N 44°09' E 028°46'0 0.0
2017-Nov-29 18:58N 44°09' E 028°46'0 0.0
2017-Nov-29 18:22N 44°09' E 028°46'0 0.0
2017-Nov-29 17:58N 44°09' E 028°46'0 0.0
2017-Nov-29 17:28N 44°09' E 028°46'0 0.0
2017-Nov-29 16:58N 44°09' E 028°46'0 0.0
2017-Nov-29 16:28N 44°09' E 028°46'0 0.0
2017-Nov-29 15:58N 44°09' E 028°46'0 0.1
2017-Nov-29 15:28N 44°09' E 028°46'0 0.1
2017-Nov-29 14:58N 44°09' E 028°46'0 0.0
2017-Nov-29 14:25N 44°09' E 028°46'0 0.0
2017-Nov-29 13:58N 44°09' E 028°46'0 0.0
2017-Nov-29 13:28N 44°09' E 028°46'0 0.0
2017-Nov-29 12:58N 44°09' E 028°46'0 0.0
2017-Nov-29 12:28N 44°09' E 028°46'0 0.0
2017-Nov-29 11:58N 44°09' E 028°46'0 0.0
2017-Nov-29 11:28N 44°09' E 028°46'0 0.0
2017-Nov-29 10:58N 44°09' E 028°46'0 0.0
2017-Nov-29 10:28N 44°09' E 028°46'0 0.0
2017-Nov-29 09:58N 44°09' E 028°46'0 0.0
2017-Nov-29 09:28N 44°09' E 028°46'0 0.0
2017-Nov-29 08:58N 44°09' E 028°46'0 0.0
2017-Nov-29 08:28N 44°09' E 028°46'0 0.0
2017-Nov-29 07:58N 44°09' E 028°46'0 0.0
2017-Nov-29 07:28N 44°09' E 028°46'0 0.0
2017-Nov-29 06:58N 44°09' E 028°46'0 0.0
2017-Nov-29 06:28N 44°09' E 028°46'0 0.0
2017-Nov-29 05:58N 44°09' E 028°46'0 0.0
2017-Nov-29 05:28N 44°09' E 028°46'0 0.0
2017-Nov-29 04:58N 44°09' E 028°46'0 0.0
2017-Nov-29 04:28N 44°09' E 028°46'0 0.0
2017-Nov-29 03:58N 44°09' E 028°46'0 0.0
2017-Nov-29 03:28N 44°09' E 028°46'0 0.0
2017-Nov-29 02:58N 44°09' E 028°46'0 0.0
2017-Nov-29 02:25N 44°09' E 028°46'0 0.0
2017-Nov-29 01:58N 44°09' E 028°46'0 0.0
2017-Nov-29 01:28N 44°09' E 028°46'0 0.0
2017-Nov-29 00:58N 44°09' E 028°46'0 0.0
2017-Nov-29 00:22N 44°09' E 028°46'0 0.0
2017-Nov-28 23:58N 44°09' E 028°46'0 0.0
2017-Nov-28 23:28N 44°09' E 028°46'0 0.0
2017-Nov-28 22:58N 44°09' E 028°46'0 0.0
2017-Nov-28 22:28N 44°09' E 028°46'0 0.0
2017-Nov-28 21:58N 44°09' E 028°46'0 0.0
2017-Nov-28 21:28N 44°09' E 028°46'0 0.0
2017-Nov-28 20:58N 44°09' E 028°46'0 0.0
2017-Nov-28 20:28N 44°09' E 028°46'0 0.0
2017-Nov-28 19:58N 44°09' E 028°46'0 0.0
2017-Nov-28 19:28N 44°09' E 028°46'0 0.0
2017-Nov-28 18:58N 44°09' E 028°46'0 0.0
2017-Nov-28 18:28N 44°09' E 028°46'0 0.0
2017-Nov-28 17:58N 44°09' E 028°46'0 0.0
2017-Nov-28 17:25N 44°09' E 028°46'0 0.0
2017-Nov-28 16:58N 44°09' E 028°46'0 0.0
2017-Nov-28 16:28N 44°09' E 028°46'0 0.0
2017-Nov-28 15:58N 44°09' E 028°46'0 0.0
2017-Nov-28 14:58N 44°09' E 028°46'0 0.0
2017-Nov-28 14:28N 44°09' E 028°46'0 0.0
2017-Nov-28 13:58N 44°09' E 028°46'0 0.0
2017-Nov-28 13:28N 44°09' E 028°46'0 0.0
2017-Nov-28 12:58N 44°09' E 028°46'0 0.0
2017-Nov-28 12:28N 44°09' E 028°46'0 0.0
2017-Nov-28 11:58N 44°09' E 028°46'0 0.0
2017-Nov-28 11:28N 44°09' E 028°46'0 0.0
2017-Nov-28 10:58N 44°09' E 028°46'0 0.0
2017-Nov-28 10:28N 44°09' E 028°46'0 0.0
2017-Nov-28 09:58N 44°09' E 028°46'0 0.0
2017-Nov-28 09:28N 44°09' E 028°46'0 0.0
2017-Nov-28 08:58N 44°09' E 028°46'0 0.0
2017-Nov-28 08:28N 44°09' E 028°46'0 0.0
2017-Nov-28 07:58N 44°09' E 028°46'0 0.0
2017-Nov-28 07:28N 44°09' E 028°46'0 0.0
2017-Nov-28 06:58N 44°09' E 028°46'0 0.2
2017-Nov-28 06:28N 44°09' E 028°46'0 0.1
2017-Nov-28 05:58N 44°09' E 028°46'0 0.0
2017-Nov-28 05:28N 44°09' E 028°46'0 0.0
2017-Nov-28 04:28N 44°09' E 028°46'0 0.0
2017-Nov-28 03:58N 44°09' E 028°46'0 0.0
2017-Nov-28 03:28N 44°09' E 028°46'0 0.0
2017-Nov-28 02:58N 44°09' E 028°46'0 0.0
2017-Nov-28 02:28N 44°09' E 028°46'0 0.0
2017-Nov-28 01:58N 44°09' E 028°46'0 0.0
2017-Nov-28 01:28N 44°09' E 028°46'0 0.0
2017-Nov-28 00:58N 44°09' E 028°46'0 0.0
2017-Nov-28 00:28N 44°09' E 028°46'0 0.0
2017-Nov-27 23:58N 44°09' E 028°46'0 0.0
2017-Nov-27 23:28N 44°09' E 028°46'0 0.0
2017-Nov-27 22:58N 44°09' E 028°46'0 0.0
2017-Nov-27 22:28N 44°09' E 028°46'0 0.2
2017-Nov-27 21:59N 44°09' E 028°46'3 7.3
2017-Nov-27 21:30N 44°06' E 028°46'5 9.1
2017-Nov-27 21:00N 44°01' E 028°49'4 8.9
2017-Nov-27 20:30N 43°57' E 028°50'4 8.8
2017-Nov-27 20:00N 43°53' E 028°51'4 8.9
2017-Nov-27 19:30N 43°48' E 028°51'5 9.1
2017-Nov-27 19:00N 43°44' E 028°52'4 8.9
2017-Nov-27 18:30N 43°39' E 028°52'5 8.8
2017-Nov-27 18:00N 43°35' E 028°53'  
Track history (hours):
 
Tides and Currents Weather Stations Pressure Air Temp Water Temp Dewpoint Dewpoint Depression Visibility Wind Speed Wind Dir Waves Ship Positions

M/V Nazim Bey

Last reported at 2017-Dec-03 06:42 UTC. Time now 2017-Dec-14 08:16 UTC.
Position N 43°26' E 028°52'.
Warning: this ship's position is 11 days out of date.

Length 81 m; draft 4.9 m.

Type: Cargo ship. MMSI: 271000999.

Date/timePositionNaut miles runAvg speedWind from/ knotsBaromVisibWave heightAir tempDewpointWater temp
2017-Dec-03 06:42N 43°26' E 028°52'2 8.8
2017-Dec-03 06:25N 43°29' E 028°51'4 8.6
2017-Dec-03 05:59N 43°32' E 028°51'4 8.8
2017-Dec-03 05:30N 43°37' E 028°50'4 8.6
2017-Dec-03 05:00N 43°41' E 028°50'4 8.2
2017-Dec-03 04:31N 43°45' E 028°49'4 8.1
2017-Dec-03 04:00N 43°49' E 028°49'4 8.2
2017-Dec-03 03:30N 43°53' E 028°49'4 8.0
2017-Dec-03 03:00N 43°57' E 028°48'4 7.7
2017-Dec-03 02:30N 44°01' E 028°46'4 7.8
2017-Dec-03 02:00N 44°04' E 028°43'4 7.8
2017-Dec-03 01:30N 44°07' E 028°41'3 4.8
2017-Dec-03 00:58N 44°09' E 028°39'0 0.0
2017-Dec-03 00:28N 44°09' E 028°39'0 0.0
2017-Dec-02 23:55N 44°09' E 028°39'0 0.0
2017-Dec-02 23:28N 44°09' E 028°39'0 0.0
2017-Dec-02 22:58N 44°09' E 028°39'0 0.0
2017-Dec-02 22:31N 44°09' E 028°39'0 0.0
2017-Dec-02 21:58N 44°09' E 028°39'0 0.0
2017-Dec-02 21:28N 44°09' E 028°39'0 0.0
2017-Dec-02 20:58N 44°09' E 028°39'0 0.0
2017-Dec-02 20:28N 44°09' E 028°39'0 0.0
2017-Dec-02 19:58N 44°09' E 028°39'0 0.0
2017-Dec-02 19:28N 44°09' E 028°39'0 0.0
2017-Dec-02 18:58N 44°09' E 028°39'0 0.0
2017-Dec-02 18:28N 44°09' E 028°39'0 0.0
2017-Dec-02 18:01N 44°09' E 028°39'0 0.0
2017-Dec-02 17:28N 44°09' E 028°39'0 0.0
2017-Dec-02 16:58N 44°09' E 028°39'0 0.0
2017-Dec-02 16:28N 44°09' E 028°39'0 0.0
2017-Dec-02 15:58N 44°09' E 028°39'0 0.0
2017-Dec-02 15:28N 44°09' E 028°39'0 0.0
2017-Dec-02 14:58N 44°09' E 028°39'0 0.0
2017-Dec-02 14:28N 44°09' E 028°39'0 0.0
2017-Dec-02 13:58N 44°09' E 028°39'0 0.0
2017-Dec-02 13:28N 44°09' E 028°39'0 0.0
2017-Dec-02 12:58N 44°09' E 028°39'0 0.0
2017-Dec-02 12:28N 44°09' E 028°39'0 0.0
2017-Dec-02 11:52N 44°09' E 028°39'0 0.0
2017-Dec-02 11:25N 44°09' E 028°39'0 0.0
2017-Dec-02 10:58N 44°09' E 028°39'0 0.0
2017-Dec-02 10:28N 44°09' E 028°39'0 0.0
2017-Dec-02 09:58N 44°09' E 028°39'0 0.0
2017-Dec-02 09:28N 44°09' E 028°39'0 0.0
2017-Dec-02 08:58N 44°09' E 028°39'0 0.0
2017-Dec-02 08:28N 44°09' E 028°39'0 0.0
2017-Dec-02 07:58N 44°09' E 028°39'0 0.0
2017-Dec-02 07:25N 44°09' E 028°39'0 0.0
2017-Dec-02 06:58N 44°09' E 028°39'0 0.0
2017-Dec-02 06:25N 44°09' E 028°39'0 0.0
2017-Dec-02 06:01N 44°09' E 028°39'0 0.0
2017-Dec-02 05:28N 44°09' E 028°39'0 0.0
2017-Dec-02 05:01N 44°09' E 028°39'0 0.0
2017-Dec-02 04:28N 44°09' E 028°39'0 0.0
2017-Dec-02 04:01N 44°09' E 028°39'0 0.0
2017-Dec-02 03:31N 44°09' E 028°39'0 0.0
2017-Dec-02 02:58N 44°09' E 028°39'0 0.0
2017-Dec-02 02:31N 44°09' E 028°39'0 0.0
2017-Dec-02 01:58N 44°09' E 028°39'0 0.0
2017-Dec-02 01:31N 44°09' E 028°39'0 0.0
2017-Dec-02 01:01N 44°09' E 028°39'0 0.0
2017-Dec-02 00:31N 44°09' E 028°39'0 0.0
2017-Dec-01 23:55N 44°09' E 028°39'0 0.0
2017-Dec-01 23:31N 44°09' E 028°39'0 0.0
2017-Dec-01 22:55N 44°09' E 028°39'0 0.0
2017-Dec-01 22:31N 44°09' E 028°39'0 0.0
2017-Dec-01 22:01N 44°09' E 028°39'0 0.0
2017-Dec-01 21:28N 44°09' E 028°39'0 0.0
2017-Dec-01 21:01N 44°09' E 028°39'0 0.0
2017-Dec-01 20:31N 44°09' E 028°39'0 0.0
2017-Dec-01 20:01N 44°09' E 028°39'0 0.0
2017-Dec-01 19:31N 44°09' E 028°39'0 0.0
2017-Dec-01 19:01N 44°09' E 028°39'0 0.0
2017-Dec-01 18:31N 44°09' E 028°39'0 0.0
2017-Dec-01 18:01N 44°09' E 028°39'0 0.0
2017-Dec-01 17:31N 44°09' E 028°39'0 0.0
2017-Dec-01 16:55N 44°09' E 028°39'0 0.0
2017-Dec-01 16:31N 44°09' E 028°39'0 0.0
2017-Dec-01 16:01N 44°09' E 028°39'0 0.0
2017-Dec-01 15:31N 44°09' E 028°39'0 0.0
2017-Dec-01 15:01N 44°09' E 028°39'0 0.0
2017-Dec-01 14:28N 44°09' E 028°39'0 0.0
2017-Dec-01 14:01N 44°09' E 028°39'0 0.0
2017-Dec-01 13:31N 44°09' E 028°39'0 0.0
2017-Dec-01 12:58N 44°09' E 028°39'0 0.0
2017-Dec-01 12:31N 44°09' E 028°39'0 0.0
2017-Dec-01 12:01N 44°09' E 028°39'0 0.1
2017-Dec-01 11:30N 44°09' E 028°39'2 3.5
2017-Dec-01 11:00N 44°08' E 028°41'3 6.9
2017-Dec-01 10:30N 44°05' E 028°43'3 5.8
2017-Dec-01 10:00N 44°08' E 028°46'1 1.6
2017-Dec-01 09:26N 44°09' E 028°46'0 0.0
2017-Dec-01 08:59N 44°09' E 028°46'0 0.0
2017-Dec-01 08:29N 44°09' E 028°46'0 0.0
2017-Dec-01 07:59N 44°09' E 028°46'0 0.0
2017-Dec-01 07:29N 44°09' E 028°46'0 0.0
2017-Dec-01 06:59N 44°09' E 028°46'0 0.0
2017-Dec-01 06:29N 44°09' E 028°46'0 0.0
2017-Dec-01 05:59N 44°09' E 028°46'0 0.0
2017-Dec-01 05:29N 44°09' E 028°46'0 0.0
2017-Dec-01 04:59N 44°09' E 028°46'0 0.0
2017-Dec-01 04:29N 44°09' E 028°46'0 0.0
2017-Dec-01 03:59N 44°09' E 028°46'0 0.0
2017-Dec-01 03:29N 44°09' E 028°46'0 0.0
2017-Dec-01 02:59N 44°09' E 028°46'0 0.0
2017-Dec-01 02:29N 44°09' E 028°46'0 0.0
2017-Dec-01 01:53N 44°09' E 028°46'0 0.0
2017-Dec-01 01:29N 44°09' E 028°46'0 0.0
2017-Dec-01 00:56N 44°09' E 028°46'0 0.0
2017-Dec-01 00:26N 44°09' E 028°46'0 0.0
2017-Nov-30 23:59N 44°09' E 028°46'0 0.0
2017-Nov-30 23:29N 44°09' E 028°46'0 0.0
2017-Nov-30 22:59N 44°09' E 028°46'0 0.0
2017-Nov-30 22:29N 44°09' E 028°46'0 0.0
2017-Nov-30 21:59N 44°09' E 028°46'0 0.0
2017-Nov-30 21:29N 44°09' E 028°46'0 0.0
2017-Nov-30 20:59N 44°09' E 028°46'0 0.0
2017-Nov-30 20:29N 44°09' E 028°46'0 0.0
2017-Nov-30 19:59N 44°09' E 028°46'0 0.1
2017-Nov-30 19:29N 44°09' E 028°46'0 0.2
2017-Nov-30 18:59N 44°09' E 028°46'0 0.1
2017-Nov-30 18:29N 44°08' E 028°46'0 0.0
2017-Nov-30 17:59N 44°08' E 028°46'0 0.1
2017-Nov-30 17:26N 44°08' E 028°46'0 0.1
2017-Nov-30 16:59N 44°08' E 028°46'0 0.3
2017-Nov-30 16:30N 44°08' E 028°46'1 1.9
2017-Nov-30 15:58N 44°09' E 028°46'0 0.2
2017-Nov-30 15:28N 44°09' E 028°46'0 0.0
2017-Nov-30 14:58N 44°09' E 028°46'0 0.0
2017-Nov-30 14:28N 44°09' E 028°46'0 0.0
2017-Nov-30 13:58N 44°09' E 028°46'0 0.0
2017-Nov-30 13:28N 44°09' E 028°46'0 0.0
2017-Nov-30 12:58N 44°09' E 028°46'0 0.0
2017-Nov-30 12:28N 44°09' E 028°46'0 0.0
2017-Nov-30 11:58N 44°09' E 028°46'0 0.0
2017-Nov-30 11:28N 44°09' E 028°46'0 0.0
2017-Nov-30 10:58N 44°09' E 028°46'0 0.0
2017-Nov-30 10:28N 44°09' E 028°46'0 0.0
2017-Nov-30 09:58N 44°09' E 028°46'0 0.0
2017-Nov-30 09:28N 44°09' E 028°46'0 0.0
2017-Nov-30 08:58N 44°09' E 028°46'0 0.0
2017-Nov-30 08:28N 44°09' E 028°46'0 0.0
2017-Nov-30 07:58N 44°09' E 028°46'0 0.0
2017-Nov-30 07:28N 44°09' E 028°46'0 0.0
2017-Nov-30 06:55N 44°09' E 028°46'0 0.0
2017-Nov-30 06:28N 44°09' E 028°46'0 0.0
2017-Nov-30 05:58N 44°09' E 028°46'0 0.0
2017-Nov-30 05:28N 44°09' E 028°46'0 0.0
2017-Nov-30 04:58N 44°09' E 028°46'0 0.0
2017-Nov-30 04:28N 44°09' E 028°46'0 0.0
2017-Nov-30 03:58N 44°09' E 028°46'0 0.0
2017-Nov-30 03:28N 44°09' E 028°46'0 0.0
2017-Nov-30 02:58N 44°09' E 028°46'0 0.0
2017-Nov-30 02:28N 44°09' E 028°46'0 0.0
2017-Nov-30 01:58N 44°09' E 028°46'0 0.0
2017-Nov-30 01:28N 44°09' E 028°46'0 0.0
2017-Nov-30 00:58N 44°09' E 028°46'0 0.0
2017-Nov-30 00:22N 44°09' E 028°46'0 0.0
2017-Nov-29 23:58N 44°09' E 028°46'0 0.0
2017-Nov-29 23:28N 44°09' E 028°46'0 0.0
2017-Nov-29 22:58N 44°09' E 028°46'0 0.0
2017-Nov-29 22:28N 44°09' E 028°46'0 0.0
2017-Nov-29 21:58N 44°09' E 028°46'0 0.0
2017-Nov-29 21:28N 44°09' E 028°46'0 0.0
2017-Nov-29 20:58N 44°09' E 028°46'0 0.0
2017-Nov-29 20:28N 44°09' E 028°46'0 0.0
2017-Nov-29 19:52N 44°09' E 028°46'0 0.0
2017-Nov-29 19:28N 44°09' E 028°46'0 0.0
2017-Nov-29 18:58N 44°09' E 028°46'0 0.0
2017-Nov-29 18:22N 44°09' E 028°46'0 0.0
2017-Nov-29 17:58N 44°09' E 028°46'0 0.0
2017-Nov-29 17:28N 44°09' E 028°46'0 0.0
2017-Nov-29 16:58N 44°09' E 028°46'0 0.0
2017-Nov-29 16:28N 44°09' E 028°46'0 0.0
2017-Nov-29 15:58N 44°09' E 028°46'0 0.1
2017-Nov-29 15:28N 44°09' E 028°46'0 0.1
2017-Nov-29 14:58N 44°09' E 028°46'0 0.0
2017-Nov-29 14:25N 44°09' E 028°46'0 0.0
2017-Nov-29 13:58N 44°09' E 028°46'0 0.0
2017-Nov-29 13:28N 44°09' E 028°46'0 0.0
2017-Nov-29 12:58N 44°09' E 028°46'0 0.0
2017-Nov-29 12:28N 44°09' E 028°46'0 0.0
2017-Nov-29 11:58N 44°09' E 028°46'0 0.0
2017-Nov-29 11:28N 44°09' E 028°46'0 0.0
2017-Nov-29 10:58N 44°09' E 028°46'0 0.0
2017-Nov-29 10:28N 44°09' E 028°46'0 0.0
2017-Nov-29 09:58N 44°09' E 028°46'0 0.0
2017-Nov-29 09:28N 44°09' E 028°46'0 0.0
2017-Nov-29 08:58N 44°09' E 028°46'0 0.0
2017-Nov-29 08:28N 44°09' E 028°46'0 0.0
2017-Nov-29 07:58N 44°09' E 028°46'0 0.0
2017-Nov-29 07:28N 44°09' E 028°46'0 0.0
2017-Nov-29 06:58N 44°09' E 028°46'0 0.0
2017-Nov-29 06:28N 44°09' E 028°46'0 0.0
2017-Nov-29 05:58N 44°09' E 028°46'0 0.0
2017-Nov-29 05:28N 44°09' E 028°46'0 0.0
2017-Nov-29 04:58N 44°09' E 028°46'0 0.0
2017-Nov-29 04:28N 44°09' E 028°46'0 0.0
2017-Nov-29 03:58N 44°09' E 028°46'0 0.0
2017-Nov-29 03:28N 44°09' E 028°46'0 0.0
2017-Nov-29 02:58N 44°09' E 028°46'0 0.0
2017-Nov-29 02:25N 44°09' E 028°46'0 0.0
2017-Nov-29 01:58N 44°09' E 028°46'0 0.0
2017-Nov-29 01:28N 44°09' E 028°46'0 0.0
2017-Nov-29 00:58N 44°09' E 028°46'0 0.0
2017-Nov-29 00:22N 44°09' E 028°46'0 0.0
2017-Nov-28 23:58N 44°09' E 028°46'0 0.0
2017-Nov-28 23:28N 44°09' E 028°46'0 0.0
2017-Nov-28 22:58N 44°09' E 028°46'0 0.0
2017-Nov-28 22:28N 44°09' E 028°46'0 0.0
2017-Nov-28 21:58N 44°09' E 028°46'0 0.0
2017-Nov-28 21:28N 44°09' E 028°46'0 0.0
2017-Nov-28 20:58N 44°09' E 028°46'0 0.0
2017-Nov-28 20:28N 44°09' E 028°46'0 0.0
2017-Nov-28 19:58N 44°09' E 028°46'0 0.0
2017-Nov-28 19:28N 44°09' E 028°46'0 0.0
2017-Nov-28 18:58N 44°09' E 028°46'0 0.0
2017-Nov-28 18:28N 44°09' E 028°46'0 0.0
2017-Nov-28 17:58N 44°09' E 028°46'0 0.0
2017-Nov-28 17:25N 44°09' E 028°46'0 0.0
2017-Nov-28 16:58N 44°09' E 028°46'0 0.0
2017-Nov-28 16:28N 44°09' E 028°46'0 0.0
2017-Nov-28 15:58N 44°09' E 028°46'0 0.0
2017-Nov-28 14:58N 44°09' E 028°46'0 0.0
2017-Nov-28 14:28N 44°09' E 028°46'0 0.0
2017-Nov-28 13:58N 44°09' E 028°46'0 0.0
2017-Nov-28 13:28N 44°09' E 028°46'0 0.0
2017-Nov-28 12:58N 44°09' E 028°46'0 0.0
2017-Nov-28 12:28N 44°09' E 028°46'0 0.0
2017-Nov-28 11:58N 44°09' E 028°46'0 0.0
2017-Nov-28 11:28N 44°09' E 028°46'0 0.0
2017-Nov-28 10:58N 44°09' E 028°46'0 0.0
2017-Nov-28 10:28N 44°09' E 028°46'0 0.0
2017-Nov-28 09:58N 44°09' E 028°46'0 0.0
2017-Nov-28 09:28N 44°09' E 028°46'0 0.0
2017-Nov-28 08:58N 44°09' E 028°46'0 0.0
2017-Nov-28 08:28N 44°09' E 028°46'0 0.0
2017-Nov-28 07:58N 44°09' E 028°46'0 0.0
2017-Nov-28 07:28N 44°09' E 028°46'0 0.0
2017-Nov-28 06:58N 44°09' E 028°46'0 0.2
2017-Nov-28 06:28N 44°09' E 028°46'0 0.1
2017-Nov-28 05:58N 44°09' E 028°46'0 0.0
2017-Nov-28 05:28N 44°09' E 028°46'0 0.0
2017-Nov-28 04:28N 44°09' E 028°46'0 0.0
2017-Nov-28 03:58N 44°09' E 028°46'0 0.0
2017-Nov-28 03:28N 44°09' E 028°46'0 0.0
2017-Nov-28 02:58N 44°09' E 028°46'0 0.0
2017-Nov-28 02:28N 44°09' E 028°46'0 0.0
2017-Nov-28 01:58N 44°09' E 028°46'0 0.0
2017-Nov-28 01:28N 44°09' E 028°46'0 0.0
2017-Nov-28 00:58N 44°09' E 028°46'0 0.0
2017-Nov-28 00:28N 44°09' E 028°46'0 0.0
2017-Nov-27 23:58N 44°09' E 028°46'0 0.0
2017-Nov-27 23:28N 44°09' E 028°46'0 0.0
2017-Nov-27 22:58N 44°09' E 028°46'0 0.0
2017-Nov-27 22:28N 44°09' E 028°46'0 0.2
2017-Nov-27 21:59N 44°09' E 028°46'3 7.3
2017-Nov-27 21:30N 44°06' E 028°46'5 9.1
2017-Nov-27 21:00N 44°01' E 028°49'4 8.9
2017-Nov-27 20:30N 43°57' E 028°50'4 8.8
2017-Nov-27 20:00N 43°53' E 028°51'4 8.9
2017-Nov-27 19:30N 43°48' E 028°51'5 9.1
2017-Nov-27 19:00N 43°44' E 028°52'4 8.9
2017-Nov-27 18:30N 43°39' E 028°52'5 8.8
2017-Nov-27 18:00N 43°35' E 028°53'  

Dump ship's entire track history